createdAt,value
2018-09-14T00:00:11.572Z,1007.03
2018-09-14T00:00:52.154Z,1007.05
2018-09-14T00:01:32.623Z,1007.04
2018-09-14T00:02:13.076Z,1007.06
2018-09-14T00:02:53.568Z,1007.05
2018-09-14T00:03:34.047Z,1007.03
2018-09-14T00:04:14.514Z,1007.03
2018-09-14T00:04:55.011Z,1006.98
2018-09-14T00:05:35.524Z,1006.96
2018-09-14T00:06:16.029Z,1007
2018-09-14T00:06:56.480Z,1007.04
2018-09-14T00:07:36.978Z,1007.04
2018-09-14T00:08:17.519Z,1007
2018-09-14T00:08:58.035Z,1006.99
2018-09-14T00:09:38.541Z,1006.99
2018-09-14T00:10:19.102Z,1006.98
2018-09-14T00:10:59.564Z,1006.97
2018-09-14T00:11:40.063Z,1006.99
2018-09-14T00:12:20.530Z,1006.98
2018-09-14T00:13:01.070Z,1006.98
2018-09-14T00:13:41.592Z,1006.98
2018-09-14T00:14:22.036Z,1006.93
2018-09-14T00:15:02.534Z,1006.98
2018-09-14T00:15:43.019Z,1006.93
2018-09-14T00:16:23.528Z,1006.9
2018-09-14T00:17:03.980Z,1006.93
2018-09-14T00:17:44.502Z,1006.88
2018-09-14T00:18:24.985Z,1006.88
2018-09-14T00:19:05.500Z,1006.88
2018-09-14T00:19:46.044Z,1006.88
2018-09-14T00:20:26.564Z,1006.86
2018-09-14T00:21:07.011Z,1006.92
2018-09-14T00:21:47.560Z,1006.88
2018-09-14T00:22:28.032Z,1006.89
2018-09-14T00:23:08.956Z,1006.84
2018-09-14T00:23:49.386Z,1006.84
2018-09-14T00:24:29.937Z,1006.85
2018-09-14T00:25:10.419Z,1006.84
2018-09-14T00:25:50.917Z,1006.85
2018-09-14T00:26:31.408Z,1006.82
2018-09-14T00:27:11.897Z,1006.83
2018-09-14T00:27:52.395Z,1006.81
2018-09-14T00:28:32.885Z,1006.84
2018-09-14T00:29:13.362Z,1006.88
2018-09-14T00:29:54.268Z,1006.86
2018-09-14T00:30:34.648Z,1006.9
2018-09-14T00:31:15.191Z,1006.85
2018-09-14T00:31:55.655Z,1006.87
2018-09-14T00:32:36.138Z,1006.85
2018-09-14T00:33:16.631Z,1006.88
2018-09-14T00:33:57.113Z,1006.86
2018-09-14T00:34:37.619Z,1006.86
2018-09-14T00:35:18.105Z,1006.85
2018-09-14T00:35:58.561Z,1006.93
2018-09-14T00:36:39.090Z,1006.86
2018-09-14T00:37:19.574Z,1006.89
2018-09-14T00:38:00.089Z,1006.82
2018-09-14T00:38:40.568Z,1006.88
2018-09-14T00:39:21.071Z,1006.88
2018-09-14T00:40:01.677Z,1006.85
2018-09-14T00:40:42.174Z,1006.89
2018-09-14T00:41:22.624Z,1006.85
2018-09-14T00:42:03.132Z,1006.86
2018-09-14T00:42:43.608Z,1006.83
2018-09-14T00:43:24.169Z,1006.85
2018-09-14T00:44:05.357Z,1006.85
2018-09-14T00:44:45.836Z,1006.84
2018-09-14T00:45:26.390Z,1006.83
2018-09-14T00:46:06.927Z,1006.88
2018-09-14T00:46:47.486Z,1006.8
2018-09-14T00:47:27.980Z,1006.84
2018-09-14T00:48:08.451Z,1006.87
2018-09-14T00:48:48.955Z,1006.84
2018-09-14T00:49:29.454Z,1006.82
2018-09-14T00:50:10.045Z,1006.87
2018-09-14T00:50:50.570Z,1006.9
2018-09-14T00:51:31.045Z,1006.84
2018-09-14T00:52:11.606Z,1006.84
2018-09-14T00:52:52.147Z,1006.85
2018-09-14T00:53:32.642Z,1006.81
2018-09-14T00:54:13.208Z,1006.8
2018-09-14T00:54:53.778Z,1006.79
2018-09-14T00:55:34.421Z,1006.79
2018-09-14T00:56:14.899Z,1006.79
2018-09-14T00:56:55.401Z,1006.76
2018-09-14T00:57:35.910Z,1006.77
2018-09-14T00:58:16.393Z,1006.78
2018-09-14T00:59:00.473Z,1006.78
2018-09-14T00:59:40.923Z,1006.77
2018-09-14T01:00:21.433Z,1006.77
2018-09-14T01:01:01.921Z,1006.75
2018-09-14T01:01:46.238Z,1006.74
2018-09-14T01:02:26.709Z,1006.75
2018-09-14T01:03:07.327Z,1006.75
2018-09-14T01:03:47.882Z,1006.75
2018-09-14T01:04:28.357Z,1006.73
2018-09-14T01:05:08.801Z,1006.73
2018-09-14T01:05:49.416Z,1006.74
2018-09-14T01:06:29.866Z,1006.71
2018-09-14T01:07:10.313Z,1006.71
2018-09-14T01:07:50.824Z,1006.7
2018-09-14T01:08:31.305Z,1006.72
2018-09-14T01:09:11.775Z,1006.71
2018-09-14T01:09:52.325Z,1006.72
2018-09-14T01:10:32.864Z,1006.7
2018-09-14T01:11:13.338Z,1006.73
2018-09-14T01:11:53.864Z,1006.69
2018-09-14T01:12:34.323Z,1006.73
2018-09-14T01:13:14.820Z,1006.75
2018-09-14T01:13:55.279Z,1006.75
2018-09-14T01:14:35.811Z,1006.72
2018-09-14T01:15:16.302Z,1006.76
2018-09-14T01:15:56.857Z,1006.77
2018-09-14T01:16:37.304Z,1006.77
2018-09-14T01:17:17.898Z,1006.8
2018-09-14T01:17:58.481Z,1006.75
2018-09-14T01:18:38.977Z,1006.8
2018-09-14T01:19:19.427Z,1006.8
2018-09-14T01:19:59.972Z,1006.81
2018-09-14T01:20:40.420Z,1006.79
2018-09-14T01:21:20.921Z,1006.78
2018-09-14T01:22:01.626Z,1006.79
2018-09-14T01:22:42.219Z,1006.82
2018-09-14T01:23:22.675Z,1006.78
2018-09-14T01:24:03.218Z,1006.77
2018-09-14T01:24:43.763Z,1006.76
2018-09-14T01:25:24.286Z,1006.77
2018-09-14T01:26:04.717Z,1006.75
2018-09-14T01:26:45.206Z,1006.75
2018-09-14T01:27:25.714Z,1006.7
2018-09-14T01:28:06.163Z,1006.72
2018-09-14T01:28:46.669Z,1006.69
2018-09-14T01:29:27.192Z,1006.76
2018-09-14T01:30:07.675Z,1006.74
2018-09-14T01:30:48.161Z,1006.73
2018-09-14T01:31:28.713Z,1006.74
2018-09-14T01:32:09.113Z,1006.73
2018-09-14T01:32:49.669Z,1006.75
2018-09-14T01:33:30.163Z,1006.75
2018-09-14T01:34:10.639Z,1006.74
2018-09-14T01:34:51.173Z,1006.71
2018-09-14T01:35:31.663Z,1006.73
2018-09-14T01:36:12.122Z,1006.72
2018-09-14T01:36:52.655Z,1006.69
2018-09-14T01:37:33.131Z,1006.71
2018-09-14T01:38:13.621Z,1006.66
2018-09-14T01:38:54.139Z,1006.68
2018-09-14T01:39:34.618Z,1006.71
2018-09-14T01:40:15.287Z,1006.65
2018-09-14T01:40:55.755Z,1006.71
2018-09-14T01:41:36.237Z,1006.68
2018-09-14T01:42:16.847Z,1006.7
2018-09-14T01:42:57.333Z,1006.74
2018-09-14T01:43:37.847Z,1006.73
2018-09-14T01:44:18.504Z,1006.71
2018-09-14T01:44:58.893Z,1006.7
2018-09-14T01:45:39.408Z,1006.7
2018-09-14T01:46:19.961Z,1006.73
2018-09-14T01:47:00.597Z,1006.68
2018-09-14T01:47:41.054Z,1006.73
2018-09-14T01:48:21.548Z,1006.72
2018-09-14T01:49:02.021Z,1006.75
2018-09-14T01:49:42.533Z,1006.73
2018-09-14T01:50:22.999Z,1006.73
2018-09-14T01:51:03.548Z,1006.68
2018-09-14T01:51:43.962Z,1006.69
2018-09-14T01:52:24.490Z,1006.73
2018-09-14T01:53:04.956Z,1006.71
2018-09-14T01:53:45.502Z,1006.7
2018-09-14T01:54:25.963Z,1006.71
2018-09-14T01:55:06.472Z,1006.72
2018-09-14T01:55:46.951Z,1006.69
2018-09-14T01:56:27.455Z,1006.68
2018-09-14T01:57:07.957Z,1006.71
2018-09-14T01:57:48.400Z,1006.69
2018-09-14T01:58:28.950Z,1006.67
2018-09-14T01:59:09.450Z,1006.72
2018-09-14T01:59:49.956Z,1006.66
2018-09-14T02:00:30.460Z,1006.66
2018-09-14T02:01:11.015Z,1006.68
2018-09-14T02:01:51.512Z,1006.69
2018-09-14T02:02:31.984Z,1006.64
2018-09-14T02:03:12.544Z,1006.67
2018-09-14T02:03:53.061Z,1006.71
2018-09-14T02:04:33.508Z,1006.67
2018-09-14T02:05:14.019Z,1006.68
2018-09-14T02:05:54.536Z,1006.7
2018-09-14T02:06:35.004Z,1006.7
2018-09-14T02:07:15.551Z,1006.7
2018-09-14T02:07:55.988Z,1006.66
2018-09-14T02:08:36.459Z,1006.67
2018-09-14T02:09:17.014Z,1006.66
2018-09-14T02:09:57.558Z,1006.68
2018-09-14T02:10:38.192Z,1006.69
2018-09-14T02:11:18.694Z,1006.64
2018-09-14T02:11:59.088Z,1006.66
2018-09-14T02:12:39.627Z,1006.63
2018-09-14T02:13:20.087Z,1006.68
2018-09-14T02:14:00.577Z,1006.64
2018-09-14T02:14:41.029Z,1006.64
2018-09-14T02:15:21.532Z,1006.61
2018-09-14T02:16:02.082Z,1006.61
2018-09-14T02:16:42.552Z,1006.64
2018-09-14T02:17:23.041Z,1006.65
2018-09-14T02:18:03.560Z,1006.63
2018-09-14T02:18:44.089Z,1006.62
2018-09-14T02:19:25.391Z,1006.63
2018-09-14T02:20:05.913Z,1006.6
2018-09-14T02:20:46.413Z,1006.6
2018-09-14T02:21:26.897Z,1006.64
2018-09-14T02:22:07.359Z,1006.6
2018-09-14T02:22:47.811Z,1006.59
2018-09-14T02:23:28.261Z,1006.6
2018-09-14T02:24:08.803Z,1006.58
2018-09-14T02:24:49.385Z,1006.57
2018-09-14T02:25:29.971Z,1006.59
2018-09-14T02:26:10.408Z,1006.59
2018-09-14T02:26:50.915Z,1006.59
2018-09-14T02:27:31.408Z,1006.6
2018-09-14T02:28:11.910Z,1006.6
2018-09-14T02:28:52.602Z,1006.58
2018-09-14T02:29:33.174Z,1006.56
2018-09-14T02:30:13.674Z,1006.6
2018-09-14T02:30:54.147Z,1006.57
2018-09-14T02:31:34.663Z,1006.59
2018-09-14T02:32:15.170Z,1006.58
2018-09-14T02:32:55.648Z,1006.54
2018-09-14T02:33:36.241Z,1006.57
2018-09-14T02:34:16.758Z,1006.57
2018-09-14T02:34:57.233Z,1006.6
2018-09-14T02:37:15.672Z,1006.52
2018-09-14T02:37:56.144Z,1006.56
2018-09-14T02:38:36.681Z,1006.49
2018-09-14T02:39:17.225Z,1006.52
2018-09-14T02:39:57.754Z,1006.51
2018-09-14T02:40:38.263Z,1006.47
2018-09-14T02:41:18.722Z,1006.49
2018-09-14T02:41:59.226Z,1006.47
2018-09-14T02:42:39.718Z,1006.46
2018-09-14T02:43:20.160Z,1006.47
2018-09-14T02:44:00.719Z,1006.46
2018-09-14T02:44:41.173Z,1006.43
2018-09-14T02:45:21.755Z,1006.45
2018-09-14T02:46:02.194Z,1006.47
2018-09-14T02:46:42.638Z,1006.49
2018-09-14T02:47:23.247Z,1006.5
2018-09-14T02:48:03.694Z,1006.43
2018-09-14T02:48:44.200Z,1006.51
2018-09-14T02:49:24.755Z,1006.5
2018-09-14T02:50:05.340Z,1006.51
2018-09-14T02:50:45.765Z,1006.53
2018-09-14T02:51:26.319Z,1006.53
2018-09-14T02:52:06.787Z,1006.48
2018-09-14T02:52:47.343Z,1006.51
2018-09-14T02:53:27.866Z,1006.49
2018-09-14T02:54:08.413Z,1006.5
2018-09-14T02:54:48.947Z,1006.52
2018-09-14T02:55:29.446Z,1006.51
2018-09-14T02:56:09.922Z,1006.52
2018-09-14T02:56:50.512Z,1006.51
2018-09-14T02:57:31.036Z,1006.51
2018-09-14T02:58:11.636Z,1006.5
2018-09-14T02:58:52.151Z,1006.47
2018-09-14T02:59:33.223Z,1006.55
2018-09-14T03:00:13.688Z,1006.46
2018-09-14T03:00:54.032Z,1006.48
2018-09-14T03:01:34.519Z,1006.49
2018-09-14T03:02:15.083Z,1006.52
2018-09-14T03:02:55.594Z,1006.48
2018-09-14T03:03:36.124Z,1006.48
2018-09-14T03:04:16.624Z,1006.5
2018-09-14T03:04:57.251Z,1006.49
2018-09-14T03:05:37.627Z,1006.5
2018-09-14T03:06:18.120Z,1006.53
2018-09-14T03:06:58.565Z,1006.48
2018-09-14T03:07:39.110Z,1006.55
2018-09-14T03:08:19.613Z,1006.53
2018-09-14T03:09:00.111Z,1006.51
2018-09-14T03:09:40.606Z,1006.5
2018-09-14T03:10:21.129Z,1006.55
2018-09-14T03:11:01.572Z,1006.52
2018-09-14T03:11:42.029Z,1006.51
2018-09-14T03:12:22.502Z,1006.51
2018-09-14T03:13:03.000Z,1006.52
2018-09-14T03:13:43.544Z,1006.53
2018-09-14T03:14:24.020Z,1006.53
2018-09-14T03:15:04.498Z,1006.51
2018-09-14T03:15:45.062Z,1006.52
2018-09-14T03:16:25.504Z,1006.47
2018-09-14T03:17:06.104Z,1006.51
2018-09-14T03:17:47.208Z,1006.47
2018-09-14T03:18:27.617Z,1006.49
2018-09-14T03:19:08.054Z,1006.48
2018-09-14T03:19:48.463Z,1006.47
2018-09-14T03:20:29.006Z,1006.46
2018-09-14T03:21:09.465Z,1006.5
2018-09-14T03:21:49.965Z,1006.47
2018-09-14T03:22:30.444Z,1006.43
2018-09-14T03:23:10.967Z,1006.43
2018-09-14T03:23:51.411Z,1006.4
2018-09-14T03:24:31.921Z,1006.46
2018-09-14T03:25:12.421Z,1006.39
2018-09-14T03:25:53.010Z,1006.39
2018-09-14T03:26:33.420Z,1006.41
2018-09-14T03:27:14.476Z,1006.42
2018-09-14T03:27:54.861Z,1006.41
2018-09-14T03:28:35.331Z,1006.43
2018-09-14T03:29:15.863Z,1006.39
2018-09-14T03:29:56.366Z,1006.4
2018-09-14T03:30:36.911Z,1006.44
2018-09-14T03:31:17.305Z,1006.39
2018-09-14T03:31:57.827Z,1006.42
2018-09-14T03:32:38.366Z,1006.43
2018-09-14T03:33:18.810Z,1006.4
2018-09-14T03:34:00.304Z,1006.41
2018-09-14T03:34:40.739Z,1006.43
2018-09-14T03:35:21.272Z,1006.41
2018-09-14T03:36:01.761Z,1006.46
2018-09-14T03:36:42.248Z,1006.41
2018-09-14T03:37:22.731Z,1006.45
2018-09-14T03:38:03.289Z,1006.43
2018-09-14T03:38:43.746Z,1006.45
2018-09-14T03:39:24.250Z,1006.41
2018-09-14T03:40:04.687Z,1006.43
2018-09-14T03:40:45.210Z,1006.45
2018-09-14T03:41:25.837Z,1006.46
2018-09-14T03:42:06.330Z,1006.47
2018-09-14T03:42:46.793Z,1006.45
2018-09-14T03:43:27.333Z,1006.44
2018-09-14T03:44:07.830Z,1006.47
2018-09-14T03:44:48.317Z,1006.48
2018-09-14T03:45:28.824Z,1006.51
2018-09-14T03:46:09.342Z,1006.49
2018-09-14T03:46:49.833Z,1006.44
2018-09-14T03:47:30.295Z,1006.48
2018-09-14T03:48:10.775Z,1006.54
2018-09-14T03:48:51.360Z,1006.5
2018-09-14T03:49:31.868Z,1006.54
2018-09-14T03:50:12.468Z,1006.56
2018-09-14T03:50:52.942Z,1006.56
2018-09-14T03:51:33.418Z,1006.56
2018-09-14T03:52:13.882Z,1006.54
2018-09-14T03:52:54.367Z,1006.57
2018-09-14T03:53:34.945Z,1006.57
2018-09-14T03:54:15.380Z,1006.57
2018-09-14T03:54:55.905Z,1006.57
2018-09-14T03:55:36.378Z,1006.59
2018-09-14T03:56:16.827Z,1006.57
2018-09-14T03:56:57.368Z,1006.63
2018-09-14T03:57:37.847Z,1006.58
2018-09-14T03:58:18.370Z,1006.6
2018-09-14T03:58:58.841Z,1006.58
2018-09-14T03:59:39.325Z,1006.58
2018-09-14T04:00:19.799Z,1006.62
2018-09-14T04:01:00.298Z,1006.64
2018-09-14T04:01:40.822Z,1006.58
2018-09-14T04:02:21.316Z,1006.57
2018-09-14T04:03:01.845Z,1006.56
2018-09-14T04:03:42.407Z,1006.6
2018-09-14T04:04:22.934Z,1006.59
2018-09-14T04:05:03.511Z,1006.56
2018-09-14T04:05:44.088Z,1006.6
2018-09-14T04:06:24.549Z,1006.58
2018-09-14T04:07:05.031Z,1006.57
2018-09-14T04:07:45.557Z,1006.59
2018-09-14T04:08:26.021Z,1006.61
2018-09-14T04:09:06.533Z,1006.57
2018-09-14T04:09:46.961Z,1006.59
2018-09-14T04:10:27.469Z,1006.55
2018-09-14T04:11:07.967Z,1006.58
2018-09-14T04:11:48.487Z,1006.55
2018-09-14T04:12:28.992Z,1006.55
2018-09-14T04:13:09.466Z,1006.57
2018-09-14T04:13:49.953Z,1006.53
2018-09-14T04:14:30.413Z,1006.52
2018-09-14T04:15:10.915Z,1006.53
2018-09-14T04:15:51.375Z,1006.53
2018-09-14T04:16:31.877Z,1006.52
2018-09-14T04:17:12.411Z,1006.53
2018-09-14T04:17:52.833Z,1006.5
2018-09-14T04:18:33.358Z,1006.52
2018-09-14T04:19:13.832Z,1006.55
2018-09-14T04:19:54.369Z,1006.53
2018-09-14T04:20:34.836Z,1006.52
2018-09-14T04:21:15.315Z,1006.55
2018-09-14T04:21:55.821Z,1006.5
2018-09-14T04:22:36.303Z,1006.5
2018-09-14T04:23:16.809Z,1006.5
2018-09-14T04:23:57.333Z,1006.53
2018-09-14T04:24:37.787Z,1006.5
2018-09-14T04:25:18.278Z,1006.48
2018-09-14T04:25:58.766Z,1006.51
2018-09-14T04:26:39.255Z,1006.52
2018-09-14T04:27:19.715Z,1006.52
2018-09-14T04:28:00.199Z,1006.53
2018-09-14T04:28:40.654Z,1006.53
2018-09-14T04:29:21.195Z,1006.52
2018-09-14T04:30:01.625Z,1006.51
2018-09-14T04:30:42.150Z,1006.54
2018-09-14T04:31:22.634Z,1006.52
2018-09-14T04:32:03.160Z,1006.51
2018-09-14T04:32:43.601Z,1006.51
2018-09-14T04:33:24.103Z,1006.55
2018-09-14T04:34:04.654Z,1006.6
2018-09-14T04:34:45.190Z,1006.59
2018-09-14T04:35:25.725Z,1006.61
2018-09-14T04:36:06.192Z,1006.61
2018-09-14T04:36:46.668Z,1006.59
2018-09-14T04:37:27.154Z,1006.63
2018-09-14T04:38:07.672Z,1006.56
2018-09-14T04:38:48.184Z,1006.63
2018-09-14T04:39:28.698Z,1006.65
2018-09-14T04:40:09.188Z,1006.58
2018-09-14T04:40:49.653Z,1006.64
2018-09-14T04:41:30.282Z,1006.64
2018-09-14T04:42:10.747Z,1006.61
2018-09-14T04:42:51.253Z,1006.62
2018-09-14T04:43:31.766Z,1006.63
2018-09-14T04:44:12.309Z,1006.63
2018-09-14T04:44:52.740Z,1006.66
2018-09-14T04:45:33.257Z,1006.66
2018-09-14T04:46:13.718Z,1006.62
2018-09-14T04:46:54.220Z,1006.68
2018-09-14T04:47:34.692Z,1006.71
2018-09-14T04:48:15.250Z,1006.71
2018-09-14T04:48:55.627Z,1006.73
2018-09-14T04:49:36.140Z,1006.7
2018-09-14T04:50:16.735Z,1006.71
2018-09-14T04:50:57.224Z,1006.71
2018-09-14T04:51:37.695Z,1006.7
2018-09-14T04:52:18.376Z,1006.71
2018-09-14T04:52:58.761Z,1006.69
2018-09-14T04:53:39.716Z,1006.68
2018-09-14T04:54:20.222Z,1006.71
2018-09-14T04:55:03.049Z,1006.72
2018-09-14T04:56:56.326Z,1006.74
2018-09-14T04:57:36.956Z,1006.72
2018-09-14T04:58:17.348Z,1006.7
2018-09-14T04:58:57.810Z,1006.67
2018-09-14T04:59:38.439Z,1006.69
2018-09-14T05:00:19.033Z,1006.69
2018-09-14T05:00:59.510Z,1006.68
2018-09-14T05:01:40.024Z,1006.67
2018-09-14T05:02:20.553Z,1006.72
2018-09-14T05:03:01.075Z,1006.7
2018-09-14T05:03:41.497Z,1006.74
2018-09-14T05:04:21.990Z,1006.71
2018-09-14T05:05:02.519Z,1006.69
2018-09-14T05:05:43.046Z,1006.72
2018-09-14T05:06:23.500Z,1006.68
2018-09-14T05:07:04.959Z,1006.7
2018-09-14T05:07:45.579Z,1006.76
2018-09-14T05:08:25.949Z,1006.69
2018-09-14T05:09:06.456Z,1006.72
2018-09-14T05:09:46.976Z,1006.71
2018-09-14T05:10:27.523Z,1006.71
2018-09-14T05:11:08.148Z,1006.71
2018-09-14T05:11:48.623Z,1006.76
2018-09-14T05:12:29.060Z,1006.75
2018-09-14T05:13:09.561Z,1006.78
2018-09-14T05:13:50.053Z,1006.8
2018-09-14T05:14:30.578Z,1006.76
2018-09-14T05:15:11.075Z,1006.79
2018-09-14T05:15:51.530Z,1006.77
2018-09-14T05:16:32.068Z,1006.76
2018-09-14T05:17:12.633Z,1006.74
2018-09-14T05:17:53.345Z,1006.78
2018-09-14T05:18:33.864Z,1006.78
2018-09-14T05:19:14.467Z,1006.79
2018-09-14T05:19:54.961Z,1006.76
2018-09-14T05:20:35.469Z,1006.75
2018-09-14T05:21:16.107Z,1006.76
2018-09-14T05:21:56.587Z,1006.76
2018-09-14T05:22:37.119Z,1006.75
2018-09-14T05:23:17.833Z,1006.79
2018-09-14T05:23:58.242Z,1006.76
2018-09-14T05:24:38.759Z,1006.76
2018-09-14T05:25:19.427Z,1006.76
2018-09-14T05:25:59.867Z,1006.75
2018-09-14T05:26:40.358Z,1006.76
2018-09-14T05:27:20.817Z,1006.75
2018-09-14T05:28:01.390Z,1006.74
2018-09-14T05:28:41.851Z,1006.81
2018-09-14T05:29:22.372Z,1006.79
2018-09-14T05:30:02.817Z,1006.76
2018-09-14T05:30:43.368Z,1006.77
2018-09-14T05:31:25.426Z,1006.82
2018-09-14T05:32:05.941Z,1006.79
2018-09-14T05:32:46.350Z,1006.84
2018-09-14T05:33:26.846Z,1006.84
2018-09-14T05:34:07.590Z,1006.82
2018-09-14T05:34:48.109Z,1006.82
2018-09-14T05:35:28.583Z,1006.83
2018-09-14T05:36:09.059Z,1006.86
2018-09-14T05:36:49.542Z,1006.87
2018-09-14T05:37:30.612Z,1006.87
2018-09-14T05:38:11.110Z,1006.83
2018-09-14T05:38:51.567Z,1006.86
2018-09-14T05:39:32.115Z,1006.88
2018-09-14T05:40:12.576Z,1006.91
2018-09-14T05:40:53.027Z,1006.91
2018-09-14T05:41:33.713Z,1006.93
2018-09-14T05:42:14.094Z,1006.93
2018-09-14T05:42:54.566Z,1006.94
2018-09-14T05:43:35.197Z,1006.95
2018-09-14T05:44:15.714Z,1006.98
2018-09-14T05:44:56.302Z,1007
2018-09-14T05:45:36.857Z,1006.96
2018-09-14T05:46:17.317Z,1006.99
2018-09-14T05:46:57.827Z,1006.97
2018-09-14T05:47:42.970Z,1006.99
2018-09-14T05:48:29.211Z,1007.01
2018-09-14T05:49:08.978Z,1007.09
2018-09-14T05:49:49.683Z,1007.02
2018-09-14T05:50:34.242Z,1007.05
2018-09-14T05:51:15.148Z,1007.03
2018-09-14T05:51:55.693Z,1007.11
2018-09-14T05:52:36.317Z,1007.14
2018-09-14T05:53:17.740Z,1007.1
2018-09-14T05:53:58.130Z,1007.12
2018-09-14T05:54:38.915Z,1007.16
2018-09-14T05:55:19.398Z,1007.14
2018-09-14T05:56:00.168Z,1007.15
2018-09-14T05:56:40.731Z,1007.21
2018-09-14T05:57:22.182Z,1007.2
2018-09-14T05:58:02.946Z,1007.16
2018-09-14T05:58:43.492Z,1007.19
2018-09-14T05:59:24.027Z,1007.22
2018-09-14T06:00:04.509Z,1007.22
2018-09-14T06:00:44.973Z,1007.25
2018-09-14T06:01:25.483Z,1007.16
2018-09-14T06:02:06.932Z,1007.17
2018-09-14T06:02:47.507Z,1007.19
2018-09-14T06:03:27.952Z,1007.19
2018-09-14T06:04:08.445Z,1007.16
2018-09-14T06:04:48.956Z,1007.19
2018-09-14T06:05:29.606Z,1007.23
2018-09-14T06:06:10.076Z,1007.15
2018-09-14T06:06:50.604Z,1007.17
2018-09-14T06:07:31.087Z,1007.19
2018-09-14T06:08:11.790Z,1007.16
2018-09-14T06:08:52.109Z,1007.23
2018-09-14T06:09:32.726Z,1007.18
2018-09-14T06:10:13.455Z,1007.21
2018-09-14T06:10:54.044Z,1007.18
2018-09-14T06:11:34.765Z,1007.29
2018-09-14T06:12:15.270Z,1007.27
2018-09-14T06:12:55.777Z,1007.23
2018-09-14T06:13:36.334Z,1007.21
2018-09-14T06:14:16.783Z,1007.25
2018-09-14T06:14:57.288Z,1007.24
2018-09-14T06:15:37.789Z,1007.21
2018-09-14T06:16:18.304Z,1007.21
2018-09-14T06:16:58.803Z,1007.24
2018-09-14T06:17:39.286Z,1007.2
2018-09-14T06:18:19.789Z,1007.22
2018-09-14T06:19:00.328Z,1007.25
2018-09-14T06:19:40.793Z,1007.21
2018-09-14T06:20:21.343Z,1007.23
2018-09-14T06:21:01.867Z,1007.25
2018-09-14T06:21:42.340Z,1007.29
2018-09-14T06:22:22.875Z,1007.25
2018-09-14T06:23:03.403Z,1007.25
2018-09-14T06:23:43.857Z,1007.21
2018-09-14T06:24:24.598Z,1007.28
2018-09-14T06:25:04.835Z,1007.23
2018-09-14T06:25:45.446Z,1007.24
2018-09-14T06:26:26.080Z,1007.24
2018-09-14T06:27:06.535Z,1007.22
2018-09-14T06:27:47.512Z,1007.23
2018-09-14T06:28:28.055Z,1007.23
2018-09-14T06:29:08.528Z,1007.2
2018-09-14T06:29:48.998Z,1007.27
2018-09-14T06:30:29.775Z,1007.24
2018-09-14T06:31:10.137Z,1007.23
2018-09-14T06:31:51.723Z,1007.21
2018-09-14T06:32:32.184Z,1007.26
2018-09-14T06:33:13.030Z,1007.28
2018-09-14T06:33:54.232Z,1007.22
2018-09-14T06:34:34.749Z,1007.26
2018-09-14T06:35:15.649Z,1007.31
2018-09-14T06:35:56.088Z,1007.28
2018-09-14T06:36:36.510Z,1007.23
2018-09-14T06:37:17.160Z,1007.26
2018-09-14T06:37:57.593Z,1007.27
2018-09-14T06:38:38.374Z,1007.24
2018-09-14T06:39:19.065Z,1007.29
2018-09-14T06:39:59.559Z,1007.32
2018-09-14T06:40:40.008Z,1007.28
2018-09-14T06:41:21.017Z,1007.36
2018-09-14T06:42:01.499Z,1007.31
2018-09-14T06:42:42.047Z,1007.33
2018-09-14T06:43:22.794Z,1007.29
2018-09-14T06:44:07.250Z,1007.32
2018-09-14T06:44:47.733Z,1007.33
2018-09-14T06:45:28.276Z,1007.31
2018-09-14T06:46:08.720Z,1007.33
2018-09-14T06:46:49.367Z,1007.31
2018-09-14T06:47:29.876Z,1007.37
2018-09-14T06:48:10.328Z,1007.35
2018-09-14T06:48:50.824Z,1007.31
2018-09-14T06:49:31.371Z,1007.35
2018-09-14T06:50:11.822Z,1007.34
2018-09-14T06:50:52.379Z,1007.34
2018-09-14T06:51:32.785Z,1007.35
2018-09-14T06:52:13.567Z,1007.38
2018-09-14T06:52:53.970Z,1007.36
2018-09-14T06:53:34.423Z,1007.39
2018-09-14T06:54:14.929Z,1007.36
2018-09-14T06:54:55.477Z,1007.36
2018-09-14T06:55:36.013Z,1007.37
2018-09-14T06:56:16.562Z,1007.33
2018-09-14T06:56:56.970Z,1007.3
2018-09-14T06:57:37.778Z,1007.33
2018-09-14T06:58:18.375Z,1007.3
2018-09-14T06:58:58.818Z,1007.33
2018-09-14T06:59:39.647Z,1007.32
2018-09-14T07:00:20.303Z,1007.31
2018-09-14T07:01:00.649Z,1007.31
2018-09-14T07:01:43.662Z,1007.36
2018-09-14T07:02:24.308Z,1007.37
2018-09-14T07:03:04.681Z,1007.35
2018-09-14T07:05:38.137Z,1007.34
2018-09-14T07:06:20.547Z,1007.33
2018-09-14T07:07:02.835Z,1007.33
2018-09-14T07:07:43.471Z,1007.36
2018-09-14T07:08:26.090Z,1007.36
2018-09-14T07:09:06.298Z,1007.35
2018-09-14T07:09:46.677Z,1007.33
2018-09-14T07:10:27.208Z,1007.33
2018-09-14T07:11:07.847Z,1007.37
2018-09-14T07:11:49.538Z,1007.35
2018-09-14T07:12:30.107Z,1007.35
2018-09-14T07:13:10.131Z,1007.35
2018-09-14T07:13:50.467Z,1007.28
2018-09-14T07:14:30.940Z,1007.36
2018-09-14T07:15:11.479Z,1007.39
2018-09-14T07:15:51.988Z,1007.34
2018-09-14T07:16:32.504Z,1007.36
2018-09-14T07:17:13.540Z,1007.34
2018-09-14T07:17:55.013Z,1007.36
2018-09-14T07:18:35.654Z,1007.34
2018-09-14T07:19:16.537Z,1007.36
2018-09-14T07:19:59.555Z,1007.34
2018-09-14T07:20:40.354Z,1007.37
2018-09-14T07:21:20.932Z,1007.36
2018-09-14T07:22:01.476Z,1007.36
2018-09-14T07:22:42.003Z,1007.4
2018-09-14T07:23:22.455Z,1007.38
2018-09-14T07:24:02.909Z,1007.39
2018-09-14T07:24:44.701Z,1007.36
2018-09-14T07:25:24.946Z,1007.44
2018-09-14T07:26:06.549Z,1007.42
2018-09-14T07:26:47.568Z,1007.45
2018-09-14T07:27:28.035Z,1007.41
2018-09-14T07:28:09.168Z,1007.46
2018-09-14T07:28:49.754Z,1007.4
2018-09-14T07:29:30.225Z,1007.42
2018-09-14T07:30:10.797Z,1007.47
2018-09-14T07:30:51.313Z,1007.47
2018-09-14T07:31:31.897Z,1007.48
2018-09-14T07:32:12.992Z,1007.51
2018-09-14T07:32:53.550Z,1007.49
2018-09-14T07:33:34.091Z,1007.52
2018-09-14T07:34:14.598Z,1007.53
2018-09-14T07:34:55.041Z,1007.53
2018-09-14T07:35:35.801Z,1007.54
2018-09-14T07:36:18.565Z,1007.53
2018-09-14T07:36:59.548Z,1007.53
2018-09-14T07:37:41.047Z,1007.53
2018-09-14T07:38:23.077Z,1007.6
2018-09-14T07:39:02.850Z,1007.55
2018-09-14T07:39:44.559Z,1007.54
2018-09-14T07:40:24.596Z,1007.57
2018-09-14T07:41:11.559Z,1007.51
2018-09-14T07:41:54.749Z,1007.59
2018-09-14T07:42:35.651Z,1007.55
2018-09-14T07:43:18.678Z,1007.56
2018-09-14T07:43:57.296Z,1007.57
2018-09-14T07:44:38.947Z,1007.54
2018-09-14T07:45:26.066Z,1007.56
2018-09-14T07:46:07.123Z,1007.56
2018-09-14T07:46:47.844Z,1007.57
2018-09-14T07:47:28.767Z,1007.58
2018-09-14T07:48:11.572Z,1007.59
2018-09-14T07:48:51.509Z,1007.55
2018-09-14T07:49:36.555Z,1007.52
2018-09-14T07:50:18.352Z,1007.54
2018-09-14T07:51:00.562Z,1007.53
2018-09-14T07:51:42.582Z,1007.55
2018-09-14T07:52:22.103Z,1007.53
2018-09-14T07:53:07.583Z,1007.48
2018-09-14T07:55:36.655Z,1007.5
2018-09-14T07:56:22.233Z,1007.51
2018-09-14T07:57:03.729Z,1007.51
2018-09-14T07:57:43.736Z,1007.54
2018-09-14T07:58:23.542Z,1007.55
2018-09-14T08:00:54.511Z,1007.53
2018-09-14T08:01:36.036Z,1007.59
2018-09-14T08:02:17.303Z,1007.62
2018-09-14T08:03:02.912Z,1007.56
2018-09-14T08:03:45.516Z,1007.62
2018-09-14T08:04:28.661Z,1007.62
2018-09-14T08:05:11.370Z,1007.6
2018-09-14T08:05:53.252Z,1007.65
2018-09-14T08:06:36.566Z,1007.67
2018-09-14T08:09:11.005Z,1007.65
2018-09-14T08:09:53.168Z,1007.65
2018-09-14T08:10:33.685Z,1007.65
2018-09-14T08:11:14.963Z,1007.68
2018-09-14T08:11:54.859Z,1007.7
2018-09-14T08:12:35.872Z,1007.73
2018-09-14T08:13:21.103Z,1007.67
2018-09-14T08:14:01.833Z,1007.68
2018-09-14T08:14:43.227Z,1007.68
2018-09-14T08:15:24.509Z,1007.7
2018-09-14T08:16:07.139Z,1007.74
2018-09-14T08:16:47.974Z,1007.7
2018-09-14T08:17:32.480Z,1007.71
2018-09-14T08:18:12.549Z,1007.73
2018-09-14T08:18:55.968Z,1007.75
2018-09-14T08:19:36.513Z,1007.75
2018-09-14T08:20:19.969Z,1007.75
2018-09-14T08:21:00.495Z,1007.78
2018-09-14T08:21:44.079Z,1007.79
2018-09-14T08:22:24.382Z,1007.76
2018-09-14T08:23:05.437Z,1007.76
2018-09-14T08:23:47.195Z,1007.75
2018-09-14T08:24:28.660Z,1007.78